Time;durP1;ratioP1;P1;durP2;ratioP2;P2;SDS_P1;SDS_P2;PMS_P1;PMS_P2;Temp;Humidity;BMP_temperature;BMP_pressure;BME280_temperature;BME280_humidity;BME280_pressure;Samples;Min_cycle;Max_cycle;Signal;HPM_P1;HPM_P2
2023/06/01 00:01:01;;;;;;;5.73;2.73;;;12.00;99.90;;;;;;5017875;28;20076;-68
2023/06/01 00:03:29;;;;;;;11.30;2.63;;;12.00;99.90;;;;;;5013869;28;20033;-66
2023/06/01 00:05:56;;;;;;;5.68;2.72;;;12.00;99.90;;;;;;5028404;28;20030;-66
2023/06/01 00:08:22;;;;;;;;;;;11.90;99.90;;;;;;5014029;28;20038;-66
2023/06/01 00:10:49;;;;;;;12.07;3.45;;;11.90;99.90;;;;;;5013663;28;19917;-66
2023/06/01 00:13:15;;;;;;;4.97;3.13;;;11.90;99.90;;;;;;5016786;28;20087;-66
2023/06/01 00:15:41;;;;;;;12.82;3.63;;;11.90;99.90;;;;;;5022108;28;21603;-67
2023/06/01 00:18:08;;;;;;;9.60;3.07;;;11.80;99.90;;;;;;5020405;28;20029;-66
2023/06/01 00:20:34;;;;;;;8.00;3.67;;;11.80;99.90;;;;;;5014422;28;20549;-67
2023/06/01 00:23:00;;;;;;;6.93;3.22;;;11.70;99.90;;;;;;5020628;28;20108;-67
2023/06/01 00:25:26;;;;;;;6.67;3.80;;;11.80;99.90;;;;;;5026599;28;20556;-65
2023/06/01 00:27:51;;;;;;;6.37;3.67;;;11.70;99.90;;;;;;5018718;28;20053;-66
2023/06/01 00:30:17;;;;;;;7.73;2.80;;;11.70;99.90;;;;;;5013647;28;20057;-66
2023/06/01 00:32:43;;;;;;;8.63;3.23;;;11.70;99.90;;;;;;5013546;28;20029;-67
2023/06/01 00:35:09;;;;;;;9.10;3.97;;;11.70;99.90;;;;;;5011784;28;20037;-66
2023/06/01 00:37:34;;;;;;;6.40;2.77;;;11.70;99.90;;;;;;5013550;28;20038;-66
2023/06/01 00:40:00;;;;;;;15.17;4.37;;;11.70;99.90;;;;;;5015284;28;20022;-66
2023/06/01 00:42:26;;;;;;;6.53;3.30;;;11.70;99.90;;;;;;5029155;28;20056;-75
2023/06/01 00:44:53;;;;;;;8.40;4.37;;;11.70;99.90;;;;;;5020369;28;20442;-66
2023/06/01 00:47:19;;;;;;;10.13;4.00;;;11.70;99.90;;;;;;5024403;28;20116;-67
2023/06/01 00:49:46;;;;;;;12.10;3.40;;;11.70;99.90;;;;;;5028964;28;20040;-67
2023/06/01 00:52:13;;;;;;;8.05;3.30;;;11.80;99.90;;;;;;5025033;28;20026;-75
2023/06/01 00:54:39;;;;;;;7.65;3.55;;;11.80;99.90;;;;;;5025276;28;20425;-66
2023/06/01 00:57:06;;;;;;;7.40;3.00;;;11.80;99.90;;;;;;5028931;28;20029;-67
2023/06/01 00:59:34;;;;;;;6.78;2.83;;;11.90;99.90;;;;;;5024286;28;20034;-67
2023/06/01 01:02:00;;;;;;;6.90;3.60;;;11.90;99.90;;;;;;5029976;28;20048;-69
2023/06/01 01:04:25;;;;;;;6.33;3.33;;;11.80;99.90;;;;;;5027390;28;20376;-66
2023/06/01 01:06:51;;;;;;;7.10;3.40;;;11.80;99.90;;;;;;5021366;28;20366;-67
2023/06/01 01:09:41;;;;;;;8.40;3.43;;;11.70;99.90;;;;;;5024425;28;20042;-66
2023/06/01 01:12:17;;;;;;;11.18;3.25;;;11.80;99.90;;;;;;5025274;28;20022;-66
2023/06/01 01:14:49;;;;;;;12.70;3.55;;;11.80;99.90;;;;;;5023670;28;20424;-67
2023/06/01 01:17:32;;;;;;;31.73;4.15;;;11.80;99.90;;;;;;5028221;28;20037;-66
2023/06/01 01:20:18;;;;;;;15.13;4.97;;;11.80;99.90;;;;;;5032319;28;20049;-67
2023/06/01 01:23:32;;;;;;;7.95;3.08;;;11.70;99.90;;;;;;5024709;28;20033;-66
2023/06/01 01:26:26;;;;;;;5.67;3.03;;;11.80;99.90;;;;;;5026862;28;20331;-67
2023/06/01 01:28:52;;;;;;;6.65;3.22;;;11.70;99.90;;;;;;5026522;28;20032;-66
2023/06/01 01:31:23;;;;;;;4.07;2.47;;;11.60;99.90;;;;;;5019381;28;20045;-66
2023/06/01 01:33:51;;;;;;;12.55;3.08;;;11.60;99.90;;;;;;5028513;28;20306;-65
2023/06/01 01:36:17;;;;;;;7.70;3.58;;;11.60;99.90;;;;;;5020468;28;20061;-66
2023/06/01 01:38:43;;;;;;;10.43;3.30;;;11.60;99.90;;;;;;5017011;28;20121;-67
2023/06/01 01:41:10;;;;;;;11.63;3.97;;;11.60;99.90;;;;;;5015935;28;20034;-75
2023/06/01 01:43:36;;;;;;;;;;;11.60;99.90;;;;;;5016593;28;20088;-66
2023/06/01 01:46:21;;;;;;;9.43;3.08;;;11.60;99.90;;;;;;5015314;28;19905;-66
2023/06/01 01:49:08;;;;;;;9.52;3.20;;;11.60;99.90;;;;;;5014823;28;20061;-66
2023/06/01 01:51:53;;;;;;;8.55;3.63;;;11.70;99.90;;;;;;5015597;28;20308;-67
2023/06/01 01:54:21;;;;;;;6.77;3.27;;;11.70;99.90;;;;;;5016700;28;20474;-67
2023/06/01 01:56:48;;;;;;;7.70;3.65;;;11.70;99.90;;;;;;5013518;28;20077;-66
2023/06/01 01:59:15;;;;;;;11.98;3.67;;;11.80;99.90;;;;;;5017185;28;20427;-77
2023/06/01 02:01:44;;;;;;;7.55;4.05;;;11.80;99.90;;;;;;5016273;28;20397;-65
2023/06/01 02:04:10;;;;;;;9.05;3.92;;;11.80;99.90;;;;;;5016940;28;20084;-67
2023/06/01 02:06:36;;;;;;;9.93;3.63;;;11.80;99.90;;;;;;5016273;28;20018;-66
2023/06/01 02:09:06;;;;;;;7.35;3.13;;;11.80;99.90;;;;;;5007026;28;20014;-65
2023/06/01 02:11:36;;;;;;;7.30;3.17;;;11.80;99.90;;;;;;5014582;28;20060;-66
2023/06/01 02:14:02;;;;;;;9.23;3.88;;;11.80;99.90;;;;;;5015336;28;20018;-66
2023/06/01 02:16:28;;;;;;;10.33;3.20;;;11.80;99.90;;;;;;5016029;28;20030;-66
2023/06/01 02:18:53;;;;;;;10.27;3.83;;;11.80;99.90;;;;;;5016800;28;20022;-66
2023/06/01 02:21:19;;;;;;;9.10;3.67;;;11.70;99.90;;;;;;5016391;28;20037;-65
2023/06/01 02:23:45;;;;;;;4.77;3.17;;;11.70;99.90;;;;;;5016067;28;20022;-67
2023/06/01 02:26:11;;;;;;;5.17;3.00;;;11.60;99.90;;;;;;5015657;28;20041;-66
2023/06/01 02:28:38;;;;;;;8.50;3.67;;;11.60;99.90;;;;;;5013950;28;20030;-66
2023/06/01 02:31:05;;;;;;;6.38;2.95;;;11.60;99.90;;;;;;5012199;28;20033;-66
2023/06/01 02:33:31;;;;;;;;;;;11.50;99.90;;;;;;5010967;28;20053;-67
2023/06/01 02:35:57;;;;;;;13.75;2.70;;;11.40;99.90;;;;;;5019519;28;19941;-67
2023/06/01 02:38:22;;;;;;;7.30;3.33;;;11.40;99.90;;;;;;5019728;28;20042;-65
2023/06/01 02:40:48;;;;;;;10.40;2.83;;;11.40;99.90;;;;;;5014566;28;20029;-66
2023/06/01 02:43:14;;;;;;;19.60;2.77;;;11.40;99.90;;;;;;5015677;28;20368;-65
2023/06/01 02:45:40;;;;;;;9.97;3.27;;;11.40;99.90;;;;;;5014019;28;20029;-67
2023/06/01 02:48:05;;;;;;;6.00;2.70;;;11.50;99.90;;;;;;5014103;28;20676;-76
2023/06/01 02:50:31;;;;;;;7.47;3.03;;;11.50;99.90;;;;;;5012839;28;20033;-66
2023/06/01 02:52:57;;;;;;;8.27;3.07;;;11.50;99.90;;;;;;5014711;28;20040;-66
2023/06/01 02:55:23;;;;;;;9.30;3.53;;;11.50;99.90;;;;;;5013236;28;20514;-68
2023/06/01 02:57:48;;;;;;;5.67;3.00;;;11.50;99.90;;;;;;5015335;28;20022;-66
2023/06/01 03:00:17;;;;;;;8.33;2.77;;;11.60;99.90;;;;;;5015296;28;20029;-67
2023/06/01 03:02:45;;;;;;;12.68;3.22;;;11.50;99.90;;;;;;5014466;28;20030;-65
2023/06/01 03:05:17;;;;;;;10.25;2.97;;;11.60;99.90;;;;;;5015898;28;20025;-66
2023/06/01 03:07:45;;;;;;;6.15;2.85;;;11.60;99.90;;;;;;5013466;28;20033;-67
2023/06/01 03:10:12;;;;;;;6.63;3.88;;;11.50;99.90;;;;;;5014827;28;20040;-66
2023/06/01 03:12:38;;;;;;;8.00;3.75;;;11.40;99.90;;;;;;5014808;28;20036;-65
2023/06/01 03:15:04;;;;;;;8.48;3.70;;;11.50;99.90;;;;;;5015461;28;20033;-66
2023/06/01 03:17:31;;;;;;;8.52;3.05;;;11.50;99.90;;;;;;5014422;28;20485;-66
2023/06/01 03:19:57;;;;;;;;;;;11.40;99.90;;;;;;5014645;28;20102;-66
2023/06/01 03:22:23;;;;;;;10.82;3.63;;;11.40;99.90;;;;;;5014678;28;20012;-65
2023/06/01 03:24:49;;;;;;;9.43;3.97;;;11.40;99.90;;;;;;5015593;28;20113;-68
2023/06/01 03:27:19;;;;;;;10.70;4.47;;;11.40;99.90;;;;;;5013973;28;20026;-66
2023/06/01 03:29:45;;;;;;;8.57;3.60;;;11.50;99.90;;;;;;5013465;28;20037;-65
2023/06/01 03:32:11;;;;;;;10.20;3.70;;;11.40;99.90;;;;;;5013738;28;20428;-68
2023/06/01 03:34:36;;;;;;;12.03;4.03;;;11.40;99.90;;;;;;5015543;28;20041;-67
2023/06/01 03:37:04;;;;;;;11.97;4.20;;;11.40;99.90;;;;;;5014499;28;20030;-67
2023/06/01 03:39:33;;;;;;;10.82;3.60;;;11.40;99.90;;;;;;5013017;28;20038;-74
2023/06/01 03:41:59;;;;;;;7.38;4.03;;;11.40;99.90;;;;;;5001492;28;20034;-66
2023/06/01 03:44:25;;;;;;;10.95;3.97;;;11.40;99.90;;;;;;5015229;28;20032;-66
2023/06/01 03:46:51;;;;;;;25.83;4.18;;;11.40;99.90;;;;;;5015303;28;20069;-65
2023/06/01 03:49:16;;;;;;;12.77;5.03;;;11.40;99.90;;;;;;5013901;28;20554;-65
2023/06/01 03:51:42;;;;;;;12.03;3.27;;;11.40;99.90;;;;;;5015195;28;20055;-67
2023/06/01 03:54:08;;;;;;;7.43;3.67;;;11.40;99.90;;;;;;5009225;28;20080;-66
2023/06/01 03:56:35;;;;;;;5.57;2.03;;;11.40;99.90;;;;;;5014355;28;20436;-73
2023/06/01 03:59:01;;;;;;;9.52;3.78;;;11.30;99.90;;;;;;5013745;28;20139;-65
2023/06/01 04:01:29;;;;;;;7.00;3.55;;;11.40;99.90;;;;;;5013443;28;20367;-66
2023/06/01 04:03:56;;;;;;;9.25;3.70;;;11.30;99.90;;;;;;5015234;28;20072;-66
2023/06/01 04:06:22;;;;;;;10.18;4.55;;;11.30;99.90;;;;;;5012688;28;20403;-66
2023/06/01 04:08:55;;;;;;;10.90;4.18;;;11.40;99.90;;;;;;5014134;28;20029;-68
2023/06/01 04:11:21;;;;;;;14.57;4.53;;;11.50;99.90;;;;;;5013736;28;20060;-67
2023/06/01 04:13:48;;;;;;;8.45;3.50;;;11.40;99.90;;;;;;5013740;28;20057;-67
2023/06/01 04:16:15;;;;;;;6.00;3.95;;;11.40;99.90;;;;;;5014805;28;20140;-65
2023/06/01 04:18:40;;;;;;;;;;;11.50;99.90;;;;;;5014655;28;20033;-67
2023/06/01 04:21:06;;;;;;;13.43;4.17;;;11.50;99.90;;;;;;5014339;28;19910;-74
2023/06/01 04:23:32;;;;;;;14.88;4.40;;;11.50;99.90;;;;;;5013020;28;20072;-66
2023/06/01 04:25:59;;;;;;;8.27;3.27;;;11.50;99.90;;;;;;5015109;28;20342;-66
2023/06/01 04:28:29;;;;;;;19.27;3.97;;;11.50;99.90;;;;;;5013929;28;20348;-66
2023/06/01 04:30:55;;;;;;;8.43;3.60;;;11.50;99.90;;;;;;5014911;28;20084;-66
2023/06/01 04:33:24;;;;;;;8.80;4.17;;;11.60;99.90;;;;;;5013484;28;20037;-67
2023/06/01 04:35:52;;;;;;;7.03;3.05;;;11.50;99.90;;;;;;5013888;28;20416;-65
2023/06/01 04:38:19;;;;;;;7.45;2.95;;;11.50;99.90;;;;;;5014459;28;20026;-67
2023/06/01 04:40:45;;;;;;;12.35;2.95;;;11.50;99.90;;;;;;5013872;28;20022;-66
2023/06/01 04:43:12;;;;;;;11.60;4.00;;;11.50;99.90;;;;;;5014674;28;20041;-67
2023/06/01 04:45:38;;;;;;;;;;;11.60;99.90;;;;;;5013177;28;20029;-83
2023/06/01 04:48:08;;;;;;;7.70;2.83;;;11.50;99.90;;;;;;5014404;28;19920;-76
2023/06/01 04:50:37;;;;;;;6.70;2.75;;;11.50;99.90;;;;;;5013935;28;20030;-65
2023/06/01 04:53:03;;;;;;;16.52;3.08;;;11.50;99.90;;;;;;5014141;28;20049;-77
2023/06/01 04:55:30;;;;;;;14.90;4.25;;;11.50;99.90;;;;;;5011925;28;20124;-68
2023/06/01 04:57:58;;;;;;;12.88;2.95;;;11.50;99.90;;;;;;5013891;28;20026;-66
2023/06/01 05:00:23;;;;;;;6.18;3.33;;;11.60;99.90;;;;;;5015824;28;20030;-65
2023/06/01 05:02:49;;;;;;;8.93;3.10;;;11.60;99.90;;;;;;5013624;28;20026;-67
2023/06/01 05:05:15;;;;;;;9.47;3.87;;;11.60;99.90;;;;;;5012392;28;20076;-67
2023/06/01 05:07:42;;;;;;;9.20;3.72;;;11.60;99.90;;;;;;5024490;28;20032;-66
2023/06/01 05:10:10;;;;;;;9.52;3.88;;;11.60;99.90;;;;;;5029230;28;20038;-75
2023/06/01 05:12:36;;;;;;;10.30;3.80;;;11.70;99.90;;;;;;5013798;28;20050;-67
2023/06/01 05:15:05;;;;;;;11.45;3.00;;;11.70;99.90;;;;;;5016367;28;20034;-66
2023/06/01 05:17:31;;;;;;;9.50;3.33;;;11.70;99.90;;;;;;5010490;28;20049;-66
2023/06/01 05:19:57;;;;;;;9.70;4.80;;;11.60;99.90;;;;;;5013706;28;20344;-66
2023/06/01 05:22:23;;;;;;;5.77;3.40;;;11.60;99.90;;;;;;5007223;28;20030;-65
2023/06/01 05:24:49;;;;;;;5.82;2.55;;;11.60;99.90;;;;;;5013625;28;20030;-66
2023/06/01 05:27:16;;;;;;;6.40;2.77;;;11.60;99.90;;;;;;5017409;28;20045;-78
2023/06/01 05:29:41;;;;;;;;;;;11.60;99.90;;;;;;5014515;28;20022;-66
2023/06/01 05:32:08;;;;;;;5.33;2.30;;;11.60;99.90;;;;;;5013022;28;19959;-67
2023/06/01 05:34:34;;;;;;;3.13;1.73;;;11.60;99.90;;;;;;5017379;28;20053;-67
2023/06/01 05:37:01;;;;;;;5.33;2.27;;;11.60;99.90;;;;;;5016736;28;20429;-66
2023/06/01 05:39:28;;;;;;;6.95;3.30;;;11.60;99.90;;;;;;5017523;28;20408;-68
2023/06/01 05:41:57;;;;;;;8.07;2.63;;;11.60;99.90;;;;;;5017781;28;20145;-67
2023/06/01 05:44:24;;;;;;;4.40;1.95;;;11.70;99.90;;;;;;5016677;28;20030;-67
2023/06/01 05:46:51;;;;;;;9.50;2.67;;;11.70;99.90;;;;;;5016882;28;20033;-65
2023/06/01 05:49:16;;;;;;;;;;;11.70;99.90;;;;;;5017115;28;20473;-67
2023/06/01 05:51:42;;;;;;;10.33;3.03;;;11.70;99.90;;;;;;5017312;28;19910;-68
2023/06/01 05:54:09;;;;;;;6.10;2.27;;;11.70;99.90;;;;;;5015743;28;20282;-67
2023/06/01 05:56:40;;;;;;;15.13;3.00;;;11.80;99.90;;;;;;5016509;28;20050;-66
2023/06/01 05:59:06;;;;;;;4.38;2.50;;;11.70;99.90;;;;;;5015849;28;20409;-68
2023/06/01 06:01:32;;;;;;;4.27;2.27;;;11.80;99.90;;;;;;5017367;28;20029;-65
2023/06/01 06:03:58;;;;;;;1.97;1.43;;;11.80;99.90;;;;;;5016304;28;20454;-66
2023/06/01 06:06:25;;;;;;;11.33;3.70;;;11.90;99.90;;;;;;5016334;28;20057;-66
2023/06/01 06:08:52;;;;;;;5.50;2.45;;;11.90;99.90;;;;;;5020834;28;20030;-68
2023/06/01 06:11:17;;;;;;;3.67;2.53;;;11.90;99.90;;;;;;5018750;28;20498;-66
2023/06/01 06:13:43;;;;;;;10.67;2.70;;;11.90;99.90;;;;;;5019592;28;20124;-67
2023/06/01 06:16:09;;;;;;;12.13;2.73;;;12.00;99.90;;;;;;5014602;28;20328;-66
2023/06/01 06:18:35;;;;;;;13.67;3.30;;;12.00;99.90;;;;;;5013184;28;20065;-67
2023/06/01 06:21:01;;;;;;;8.15;3.05;;;12.10;99.90;;;;;;5019446;28;20411;-67
2023/06/01 06:23:27;;;;;;;3.47;1.80;;;12.10;99.90;;;;;;5020597;28;20176;-66
2023/06/01 06:25:52;;;;;;;6.87;2.67;;;12.10;99.90;;;;;;5016530;28;20317;-69
2023/06/01 06:28:18;;;;;;;5.40;2.33;;;12.10;99.90;;;;;;5015636;28;20025;-66
2023/06/01 06:30:44;;;;;;;3.93;1.90;;;12.10;99.90;;;;;;5015240;28;20025;-65
2023/06/01 06:33:10;;;;;;;12.27;2.60;;;12.10;99.90;;;;;;5031566;28;20030;-66
2023/06/01 06:35:36;;;;;;;7.03;2.70;;;12.20;99.90;;;;;;5015482;28;20021;-66
2023/06/01 06:38:02;;;;;;;4.93;2.35;;;12.20;99.90;;;;;;5023086;28;20022;-66
2023/06/01 06:40:28;;;;;;;10.93;2.67;;;12.20;99.90;;;;;;5029117;28;20064;-66
2023/06/01 06:42:53;;;;;;;2.80;2.03;;;12.20;99.90;;;;;;5030446;28;20028;-65
2023/06/01 06:45:19;;;;;;;7.93;2.53;;;12.30;99.90;;;;;;5032636;28;20458;-65
2023/06/01 06:47:46;;;;;;;6.40;2.60;;;12.30;99.90;;;;;;5021342;28;20137;-65
2023/06/01 06:50:12;;;;;;;4.72;2.55;;;12.30;99.90;;;;;;5026456;28;20100;-65
2023/06/01 06:52:38;;;;;;;6.85;1.60;;;12.40;99.90;;;;;;5027634;28;20384;-79
2023/06/01 06:55:04;;;;;;;3.13;1.50;;;12.40;99.90;;;;;;5025726;28;20077;-67
2023/06/01 06:57:30;;;;;;;6.55;2.45;;;12.40;99.90;;;;;;5033449;28;20035;-65
2023/06/01 06:59:55;;;;;;;4.67;2.80;;;12.40;99.90;;;;;;5030842;28;20097;-76
2023/06/01 07:02:22;;;;;;;5.80;1.93;;;12.50;99.90;;;;;;5035339;28;20032;-67
2023/06/01 07:04:48;;;;;;;1.98;1.23;;;12.50;99.90;;;;;;5029815;28;20022;-66
2023/06/01 07:07:14;;;;;;;5.13;1.83;;;12.50;99.90;;;;;;5022920;28;20065;-65
2023/06/01 07:09:40;;;;;;;5.20;2.33;;;12.50;99.90;;;;;;5034743;28;20061;-76
2023/06/01 07:12:06;;;;;;;4.50;1.75;;;12.50;99.90;;;;;;5032838;28;20057;-65
2023/06/01 07:14:32;;;;;;;8.30;2.23;;;12.50;99.90;;;;;;5019415;28;20029;-66
2023/06/01 07:16:58;;;;;;;7.77;1.77;;;12.50;99.90;;;;;;5025928;28;20766;-65
2023/06/01 07:19:23;;;;;;;3.77;2.03;;;12.50;99.90;;;;;;5022462;28;20030;-76
2023/06/01 07:21:49;;;;;;;3.87;2.07;;;12.60;99.90;;;;;;5032824;28;20108;-67
2023/06/01 07:24:18;;;;;;;4.17;2.27;;;12.70;99.90;;;;;;5035290;28;20022;-66
2023/06/01 07:26:43;;;;;;;4.78;2.28;;;12.70;99.90;;;;;;5029256;28;20053;-76
2023/06/01 07:29:09;;;;;;;9.80;2.27;;;12.80;99.90;;;;;;5025095;28;20030;-66
2023/06/01 07:31:35;;;;;;;5.10;2.20;;;12.80;99.90;;;;;;5029175;28;20033;-67
2023/06/01 07:34:00;;;;;;;9.63;1.80;;;12.80;99.90;;;;;;5024247;28;20028;-65
2023/06/01 07:36:27;;;;;;;5.67;2.17;;;12.90;99.90;;;;;;5024836;28;20026;-67
2023/06/01 07:38:52;;;;;;;2.85;1.88;;;12.90;99.90;;;;;;5032676;28;20029;-66
2023/06/01 07:41:18;;;;;;;7.40;2.53;;;12.90;99.90;;;;;;5025550;28;20068;-67
2023/06/01 07:43:44;;;;;;;4.50;1.43;;;12.90;99.90;;;;;;5017624;28;20427;-66
2023/06/01 07:46:09;;;;;;;4.57;1.63;;;12.90;99.90;;;;;;5021144;28;20029;-65
2023/06/01 07:48:38;;;;;;;8.50;1.67;;;13.00;99.90;;;;;;5021374;28;20166;-67
2023/06/01 07:51:05;;;;;;;5.30;2.10;;;12.90;99.90;;;;;;5024470;28;20051;-67
2023/06/01 07:53:33;;;;;;;4.00;1.83;;;12.90;99.90;;;;;;5016713;28;20030;-70
2023/06/01 07:55:59;;;;;;;3.13;1.67;;;13.00;99.90;;;;;;5030725;28;20088;-67
2023/06/01 07:58:25;;;;;;;3.95;1.70;;;13.00;99.90;;;;;;5028208;28;20030;-76
2023/06/01 08:00:51;;;;;;;2.63;1.20;;;12.90;99.90;;;;;;5028940;28;20320;-76
2023/06/01 08:03:17;;;;;;;10.38;2.50;;;12.90;99.90;;;;;;5022661;28;20024;-66
2023/06/01 08:05:44;;;;;;;2.67;1.70;;;12.90;99.90;;;;;;5031335;28;20324;-68
2023/06/01 08:08:10;;;;;;;6.45;1.63;;;13.00;99.90;;;;;;5024467;28;20367;-66
2023/06/01 08:10:38;;;;;;;4.27;2.27;;;13.00;99.90;;;;;;5021451;28;20030;-67
2023/06/01 08:13:04;;;;;;;8.52;2.53;;;13.10;99.90;;;;;;5028345;28;20079;-65
2023/06/01 08:15:30;;;;;;;6.93;2.55;;;13.00;99.90;;;;;;5028708;28;20079;-65
2023/06/01 08:17:56;;;;;;;3.60;2.15;;;12.90;99.90;;;;;;5028954;28;20057;-67
2023/06/01 08:20:25;;;;;;;1.65;0.77;;;12.90;99.90;;;;;;5024997;28;20105;-65
2023/06/01 08:22:51;;;;;;;7.80;1.80;;;13.00;99.90;;;;;;5025290;28;20321;-68
2023/06/01 08:25:17;;;;;;;3.47;1.63;;;13.00;99.90;;;;;;5030139;28;20021;-66
2023/06/01 08:27:43;;;;;;;2.63;1.48;;;13.00;99.90;;;;;;5033527;28;20056;-67
2023/06/01 08:30:10;;;;;;;1.77;1.10;;;13.00;99.90;;;;;;5027603;28;20070;-66
2023/06/01 08:32:37;;;;;;;2.38;1.40;;;13.10;99.90;;;;;;5022982;28;20457;-67
2023/06/01 08:35:03;;;;;;;3.95;1.95;;;13.20;99.90;;;;;;5020142;28;20135;-77
2023/06/01 08:37:29;;;;;;;5.30;2.45;;;13.20;99.90;;;;;;5028763;28;20084;-81
2023/06/01 08:39:55;;;;;;;4.85;1.42;;;13.20;99.90;;;;;;5026326;28;20025;-66
2023/06/01 08:42:35;;;;;;;3.33;1.80;;;13.20;99.90;;;;;;5021011;28;20025;-67
2023/06/01 08:45:04;;;;;;;5.10;1.90;;;13.20;99.90;;;;;;5013956;28;20030;-66
2023/06/01 08:47:31;;;;;;;4.82;1.63;;;13.30;99.90;;;;;;5023090;28;20148;-71
2023/06/01 08:49:59;;;;;;;2.00;1.55;;;13.20;99.90;;;;;;5020867;28;20409;-66
2023/06/01 08:52:28;;;;;;;7.35;1.75;;;13.20;99.90;;;;;;5014484;28;20034;-66
2023/06/01 08:54:54;;;;;;;3.67;2.55;;;13.20;99.90;;;;;;5012324;28;20030;-67
2023/06/01 08:57:21;;;;;;;3.20;1.27;;;13.30;99.90;;;;;;5019669;28;20038;-67
2023/06/01 08:59:46;;;;;;;1.60;1.15;;;13.30;99.90;;;;;;5020281;28;20033;-66
2023/06/01 09:02:14;;;;;;;6.03;2.50;;;13.30;99.90;;;;;;5019209;28;20034;-64
2023/06/01 09:04:44;;;;;;;4.35;2.30;;;13.20;99.90;;;;;;5022411;28;20049;-65
2023/06/01 09:07:13;;;;;;;13.07;2.75;;;13.20;99.90;;;;;;5027292;28;20416;-76
2023/06/01 09:09:39;;;;;;;6.18;1.80;;;13.30;99.90;;;;;;5031686;28;20033;-67
2023/06/01 09:12:24;;;;;;;8.27;2.03;;;13.30;99.90;;;;;;5032129;28;20025;-67
2023/06/01 09:14:50;;;;;;;6.68;2.28;;;13.30;99.90;;;;;;5012746;28;20030;-66
2023/06/01 09:17:23;;;;;;;2.35;1.50;;;13.40;99.90;;;;;;5031510;28;20025;-67
2023/06/01 09:19:54;;;;;;;5.38;2.40;;;13.40;99.90;;;;;;5026786;28;20025;-68
2023/06/01 09:22:20;;;;;;;6.55;2.58;;;13.60;99.90;;;;;;5026415;28;20112;-66
2023/06/01 09:24:58;;;;;;;3.87;1.60;;;13.60;99.90;;;;;;5031164;28;20108;-65
2023/06/01 09:27:25;;;;;;;4.53;1.90;;;13.60;99.90;;;;;;5026692;28;20039;-65
2023/06/01 09:29:56;;;;;;;4.80;1.95;;;13.70;99.90;;;;;;5029593;28;20361;-68
2023/06/01 09:32:22;;;;;;;4.43;1.98;;;13.60;99.90;;;;;;5033907;28;20036;-66
2023/06/01 09:34:48;;;;;;;4.73;2.87;;;13.80;99.90;;;;;;5036295;28;20356;-82
2023/06/01 09:37:14;;;;;;;4.63;2.00;;;13.70;99.90;;;;;;5030740;28;20092;-67
2023/06/01 09:39:40;;;;;;;9.17;2.13;;;13.70;99.90;;;;;;5027427;28;20188;-67
2023/06/01 09:42:06;;;;;;;6.28;1.63;;;13.70;99.90;;;;;;5023156;28;20030;-67
2023/06/01 09:44:32;;;;;;;5.45;2.03;;;13.70;99.90;;;;;;5025244;28;20026;-66
2023/06/01 09:47:02;;;;;;;3.43;1.80;;;13.70;99.90;;;;;;5028646;28;21611;-65
2023/06/01 09:49:33;;;;;;;8.45;2.90;;;13.70;99.90;;;;;;5022311;28;20033;-67
2023/06/01 09:52:05;;;;;;;5.70;1.88;;;13.70;99.90;;;;;;5026055;28;20037;-82
2023/06/01 09:55:07;;;;;;;8.00;2.08;;;13.70;99.90;;;;;;5019832;28;20022;-67
2023/06/01 09:57:33;;;;;;;6.00;2.05;;;13.70;99.90;;;;;;5032801;28;20041;-67
2023/06/01 10:00:03;;;;;;;3.90;1.50;;;13.70;99.90;;;;;;5050603;28;20470;-67
2023/06/01 10:02:32;;;;;;;8.98;2.65;;;13.80;99.90;;;;;;5051032;28;20262;-86
2023/06/01 10:04:58;;;;;;;3.45;2.00;;;13.80;99.90;;;;;;5039974;28;20116;-67
2023/06/01 10:07:26;;;;;;;9.20;2.40;;;13.70;99.90;;;;;;5039221;28;20111;-66
2023/06/01 10:09:55;;;;;;;3.53;1.75;;;13.80;99.90;;;;;;5038649;28;20332;-67
2023/06/01 10:12:22;;;;;;;3.63;1.83;;;13.80;99.90;;;;;;5048691;28;20025;-65
2023/06/01 10:14:49;;;;;;;2.60;1.30;;;13.70;99.90;;;;;;5046410;28;20029;-67
2023/06/01 10:17:16;;;;;;;7.97;2.05;;;13.80;99.90;;;;;;5042720;28;20420;-67
2023/06/01 10:19:42;;;;;;;;;;;13.80;99.90;;;;;;5045997;28;20037;-66
2023/06/01 10:22:10;;;;;;;4.83;2.00;;;13.70;99.90;;;;;;5045824;28;19920;-66
2023/06/01 10:24:40;;;;;;;4.40;1.83;;;13.90;99.90;;;;;;5036909;28;20112;-67
2023/06/01 10:27:20;;;;;;;5.47;1.95;;;14.00;99.90;;;;;;5036618;28;20029;-77
2023/06/01 10:29:46;;;;;;;4.63;1.58;;;14.10;99.90;;;;;;5033976;28;20061;-67
2023/06/01 10:32:48;;;;;;;4.65;1.98;;;14.20;99.90;;;;;;5036469;28;20045;-66
2023/06/01 10:35:40;;;;;;;2.80;1.75;;;14.20;99.90;;;;;;5030311;28;20083;-67
2023/06/01 10:38:06;;;;;;;3.50;1.40;;;14.10;99.90;;;;;;5027192;28;20033;-67
2023/06/01 10:40:34;;;;;;;5.37;1.83;;;14.10;99.90;;;;;;5004522;28;20036;-67
2023/06/01 10:42:59;;;;;;;3.63;1.80;;;14.00;99.90;;;;;;5015336;28;20508;-65
2023/06/01 10:45:34;;;;;;;3.53;1.67;;;14.00;99.90;;;;;;5024360;28;20124;-77
2023/06/01 10:48:00;;;;;;;7.68;2.47;;;14.00;99.90;;;;;;5025752;28;20180;-67
2023/06/01 10:50:26;;;;;;;5.78;2.03;;;14.00;99.90;;;;;;5026924;28;20029;-66
2023/06/01 10:52:54;;;;;;;7.07;2.00;;;14.10;99.90;;;;;;5016726;28;20052;-67
2023/06/01 10:55:24;;;;;;;4.82;1.55;;;14.10;99.90;;;;;;5031359;28;20527;-85
2023/06/01 10:57:51;;;;;;;4.22;1.70;;;14.10;99.90;;;;;;5021213;28;20337;-67
2023/06/01 11:00:28;;;;;;;3.88;1.33;;;14.10;99.90;;;;;;5024230;28;20030;-78
2023/06/01 11:03:01;;;;;;;3.75;1.35;;;14.20;99.90;;;;;;5015465;28;20030;-67
2023/06/01 11:05:50;;;;;;;3.00;1.77;;;14.10;99.90;;;;;;5030491;28;20412;-68
2023/06/01 11:08:22;;;;;;;3.13;1.17;;;14.20;99.90;;;;;;5020512;28;20321;-68
2023/06/01 11:10:54;;;;;;;2.13;0.98;;;14.20;99.90;;;;;;5029542;28;20041;-68
2023/06/01 11:13:19;;;;;;;3.63;1.67;;;14.30;99.90;;;;;;5011817;28;20497;-66
2023/06/01 11:16:04;;;;;;;3.97;1.17;;;14.40;99.90;;;;;;5032372;28;20030;-67
2023/06/01 11:19:00;;;;;;;1.38;1.27;;;14.20;99.90;;;;;;5024574;28;20029;-67
2023/06/01 11:21:35;;;;;;;4.93;1.58;;;14.10;99.90;;;;;;5024557;28;20029;-67
2023/06/01 11:24:06;;;;;;;4.50;1.52;;;13.90;99.90;;;;;;5019152;28;20029;-68
2023/06/01 11:26:37;;;;;;;2.88;1.58;;;13.90;99.90;;;;;;5020667;28;20025;-67
2023/06/01 11:29:04;;;;;;;2.50;1.85;;;13.90;99.90;;;;;;5016738;28;20443;-66
2023/06/01 11:31:36;;;;;;;11.38;2.40;;;13.90;99.90;;;;;;5031921;28;20021;-67
2023/06/01 11:34:03;;;;;;;2.40;1.50;;;13.80;99.90;;;;;;5018453;28;20057;-65
2023/06/01 11:36:29;;;;;;;7.30;2.08;;;13.90;99.90;;;;;;5031192;28;20049;-84
2023/06/01 11:38:56;;;;;;;2.83;1.70;;;13.80;99.90;;;;;;5027236;28;20048;-66
2023/06/01 11:41:26;;;;;;;4.50;2.08;;;13.80;99.90;;;;;;5021780;28;20435;-67
2023/06/01 11:43:58;;;;;;;8.88;1.88;;;13.70;99.90;;;;;;5024185;28;20323;-65
2023/06/01 11:46:26;;;;;;;2.45;0.90;;;13.70;99.90;;;;;;5021766;28;20041;-68
2023/06/01 11:49:13;;;;;;;3.95;1.65;;;13.60;99.90;;;;;;5017574;28;20105;-67
2023/06/01 11:51:40;;;;;;;3.42;1.65;;;13.50;99.90;;;;;;5013697;28;20367;-79
2023/06/01 11:54:06;;;;;;;2.90;1.42;;;13.60;99.90;;;;;;5019649;28;20042;-67
2023/06/01 11:56:34;;;;;;;4.07;1.63;;;13.50;99.90;;;;;;5030789;28;20050;-67
2023/06/01 11:59:11;;;;;;;7.07;1.25;;;13.40;99.90;;;;;;5028835;28;20029;-78
2023/06/01 12:01:46;;;;;;;3.17;1.83;;;13.40;99.90;;;;;;5032606;28;20041;-66
2023/06/01 12:04:16;;;;;;;2.45;1.20;;;13.40;99.90;;;;;;5024630;28;20416;-76
2023/06/01 12:06:42;;;;;;;4.15;2.00;;;13.40;99.90;;;;;;5022332;28;20051;-68
2023/06/01 12:09:09;;;;;;;;;;;13.50;99.90;;;;;;5030949;28;20029;-66
2023/06/01 12:11:35;;;;;;;1.90;1.25;;;13.50;99.90;;;;;;5020145;28;19909;-67
2023/06/01 12:14:05;;;;;;;1.27;1.15;;;13.50;99.90;;;;;;5024129;28;20022;-67
2023/06/01 12:16:53;;;;;;;3.65;1.38;;;13.50;99.90;;;;;;5014039;28;20064;-68
2023/06/01 12:19:18;;;;;;;1.58;1.10;;;13.50;99.90;;;;;;5013709;28;20032;-66
2023/06/01 12:21:51;;;;;;;3.60;1.77;;;13.50;99.90;;;;;;5027400;28;20029;-67
2023/06/01 12:24:28;;;;;;;2.80;1.02;;;13.50;99.90;;;;;;5014501;28;20108;-68
2023/06/01 12:26:54;;;;;;;;;;;13.50;99.90;;;;;;5014952;28;20034;-67
2023/06/01 12:29:41;;;;;;;1.42;0.82;;;13.50;99.90;;;;;;5014519;28;19952;-68
2023/06/01 12:32:08;;;;;;;4.57;1.40;;;13.50;99.90;;;;;;5014081;28;20057;-65
2023/06/01 12:34:36;;;;;;;2.10;1.48;;;13.40;99.90;;;;;;5014491;28;20026;-65
2023/06/01 12:37:16;;;;;;;3.92;1.88;;;13.20;99.90;;;;;;5014447;28;20316;-66
2023/06/01 12:39:42;;;;;;;2.08;1.20;;;13.20;99.90;;;;;;5014328;28;20029;-67
2023/06/01 12:42:10;;;;;;;2.22;1.20;;;13.10;99.90;;;;;;5016325;28;20033;-66
2023/06/01 12:44:36;;;;;;;1.33;1.13;;;13.20;99.90;;;;;;5018605;28;20021;-66
2023/06/01 12:47:03;;;;;;;2.33;0.70;;;13.30;99.90;;;;;;5018679;28;20018;-67
2023/06/01 12:49:29;;;;;;;0.75;0.70;;;13.40;99.90;;;;;;5016332;28;20061;-67
2023/06/01 12:51:55;;;;;;;1.10;1.00;;;13.50;99.90;;;;;;5018439;28;20026;-67
2023/06/01 12:54:22;;;;;;;3.27;1.20;;;13.60;99.90;;;;;;5017731;28;20096;-68